Time;durP1;ratioP1;P1;durP2;ratioP2;P2;SDS_P1;SDS_P2;PMS_P1;PMS_P2;Temp;Humidity;BMP_temperature;BMP_pressure;BME280_temperature;BME280_humidity;BME280_pressure;Samples;Min_cycle;Max_cycle;Signal;HPM_P1;HPM_P2
2022/06/19 00:00:27;;;;;;;7.10;3.80;;;;;;;18.69;79.08;98203.78;2622172;28;20106;-80
2022/06/19 00:01:52;;;;;;;8.63;4.45;;;;;;;18.57;81.42;98210.72;2622567;28;20049;-80
2022/06/19 00:03:13;;;;;;;5.88;4.30;;;;;;;18.47;83.29;98203.38;2622198;28;20443;-80
2022/06/19 00:04:29;;;;;;;6.63;4.15;;;;;;;18.41;83.98;98210.88;2622445;28;20504;-80
2022/06/19 00:05:45;;;;;;;7.38;4.18;;;;;;;18.40;84.46;98209.19;2622090;28;20052;-80
2022/06/19 00:07:01;;;;;;;5.72;4.03;;;;;;;18.42;84.25;98202.81;2622454;28;20052;-81
2022/06/19 00:08:16;;;;;;;6.00;4.20;;;;;;;18.46;84.18;98214.06;2622122;28;20118;-81
2022/06/19 00:09:32;;;;;;;6.78;3.90;;;;;;;18.48;83.58;98207.72;2622310;28;20056;-80
2022/06/19 00:10:48;;;;;;;6.53;3.80;;;;;;;18.50;83.83;98204.97;2622226;28;20048;-80
2022/06/19 00:12:05;;;;;;;4.70;4.18;;;;;;;18.53;83.39;98199.50;2622261;28;20151;-80
2022/06/19 00:13:20;;;;;;;8.25;4.15;;;;;;;18.49;83.63;98204.13;2622266;28;20115;-81
2022/06/19 00:14:37;;;;;;;6.80;4.28;;;;;;;18.39;84.37;98199.53;2622061;28;20087;-80
2022/06/19 00:15:53;;;;;;;4.20;3.80;;;;;;;18.39;83.81;98200.38;2622222;28;20044;-80
2022/06/19 00:17:09;;;;;;;6.28;3.75;;;;;;;18.40;84.15;98204.72;2622148;28;20041;-80
2022/06/19 00:18:24;;;;;;;7.03;4.50;;;;;;;18.37;83.79;98196.97;2611257;28;20551;-80
2022/06/19 00:19:40;;;;;;;8.35;4.18;;;;;;;18.37;83.77;98191.66;2615551;28;20048;-80
2022/06/19 00:20:56;;;;;;;6.10;4.28;;;;;;;18.37;84.05;98198.75;2622195;28;20048;-81
2022/06/19 00:22:11;;;;;;;4.90;4.22;;;;;;;18.37;83.16;98196.97;2622081;28;20049;-80
2022/06/19 00:23:27;;;;;;;5.35;3.97;;;;;;;18.38;83.24;98197.81;2622186;28;20076;-80
2022/06/19 00:24:43;;;;;;;5.97;4.28;;;;;;;18.40;82.80;98196.75;2622260;28;20106;-80
2022/06/19 00:25:58;;;;;;;8.82;4.53;;;;;;;18.37;83.13;98194.31;2622104;28;20052;-80
2022/06/19 00:27:14;;;;;;;5.78;4.15;;;;;;;18.35;83.19;98193.56;2622029;28;20079;-80
2022/06/19 00:28:29;;;;;;;7.40;3.85;;;;;;;18.33;83.18;98192.81;2621911;28;20131;-80
2022/06/19 00:29:45;;;;;;;8.73;4.13;;;;;;;18.29;83.60;98181.56;2622026;28;20123;-80
2022/06/19 00:31:01;;;;;;;6.20;4.07;;;;;;;18.17;83.03;98185.84;2621858;28;20048;-81
2022/06/19 00:32:18;;;;;;;6.90;4.28;;;;;;;17.99;83.85;98181.66;2621752;28;20476;-80
2022/06/19 00:33:34;;;;;;;8.73;4.43;;;;;;;17.93;84.78;98178.47;2621970;28;20060;-80
2022/06/19 00:34:49;;;;;;;5.82;3.95;;;;;;;17.92;84.81;98178.53;2621868;28;20471;-80
2022/06/19 00:36:06;;;;;;;7.00;3.90;;;;;;;17.95;84.64;98183.69;2622028;28;20048;-81
2022/06/19 00:37:22;;;;;;;5.03;4.07;;;;;;;17.96;84.37;98176.56;2622020;28;20049;-80
2022/06/19 00:38:37;;;;;;;5.72;3.60;;;;;;;17.97;84.75;98176.47;2621855;28;20055;-80
2022/06/19 00:39:53;;;;;;;8.80;3.88;;;;;;;17.99;84.76;98179.00;2621979;28;20048;-81
2022/06/19 00:41:09;;;;;;;4.78;3.88;;;;;;;17.99;85.42;98173.72;2621797;28;20552;-80
2022/06/19 00:42:24;;;;;;;6.28;3.88;;;;;;;18.00;84.71;98178.94;2622026;28;20052;-80
2022/06/19 00:43:53;;;;;;;15.60;4.57;;;;;;;17.99;84.69;98179.88;2621972;28;20118;-80
2022/06/19 00:45:51;;;;;;;6.97;3.97;;;;;;;17.92;84.89;98179.41;2621798;28;20097;-80
2022/06/19 00:47:13;;;;;;;9.68;4.57;;;;;;;17.84;85.58;98175.53;2569154;28;20130;-80
2022/06/19 00:48:32;;;;;;;9.00;4.45;;;;;;;17.81;86.56;98173.94;2569423;28;20079;-80
2022/06/19 00:49:54;;;;;;;12.55;4.38;;;;;;;17.79;86.71;98175.81;2569543;28;20111;-80
2022/06/19 00:51:10;;;;;;;8.25;4.45;;;;;;;17.83;85.61;98176.50;2569212;28;20058;-80
2022/06/19 00:52:30;;;;;;;10.80;4.90;;;;;;;17.76;86.18;98171.56;2588221;28;20431;-80
2022/06/19 00:53:47;;;;;;;8.48;4.78;;;;;;;17.77;87.52;98165.31;2621753;28;20064;-80
2022/06/19 00:55:22;;;;;;;7.03;4.50;;;;;;;17.79;88.05;98173.19;2622076;28;20052;-80
2022/06/19 00:56:39;;;;;;;8.38;4.97;;;;;;;17.79;87.71;98167.88;2621869;28;20101;-80
2022/06/19 00:58:02;;;;;;;5.85;4.63;;;;;;;17.77;87.66;98172.41;2621839;28;20052;-80
2022/06/19 00:59:18;;;;;;;6.30;4.68;;;;;;;17.69;88.53;98170.25;2621877;28;20052;-81
2022/06/19 01:00:36;;;;;;;5.63;4.60;;;;;;;17.64;89.45;98174.97;2621863;28;20045;-81
2022/06/19 01:01:53;;;;;;;5.93;4.68;;;;;;;17.58;89.44;98170.88;2621785;28;20048;-80
2022/06/19 01:03:29;;;;;;;7.53;4.68;;;;;;;17.56;89.61;98172.78;2621866;28;20048;-81
2022/06/19 01:04:51;;;;;;;5.10;4.40;;;;;;;17.55;89.70;98165.78;2621821;28;20052;-81
2022/06/19 01:06:09;;;;;;;9.80;5.07;;;;;;;17.56;89.36;98166.66;2621942;28;20369;-80
2022/06/19 01:07:26;;;;;;;5.90;4.50;;;;;;;17.56;88.97;98167.50;2621624;28;20686;-80
2022/06/19 01:08:42;;;;;;;7.45;4.80;;;;;;;17.56;89.07;98169.31;2621924;28;20048;-80
2022/06/19 01:09:57;;;;;;;6.20;4.88;;;;;;;17.54;89.52;98161.44;2621555;28;20131;-81
2022/06/19 01:11:15;;;;;;;8.95;4.95;;;;;;;17.48;90.10;98159.19;2621590;28;20087;-80
2022/06/19 01:12:31;;;;;;;9.00;4.80;;;;;;;17.49;89.87;98160.88;2621643;28;20044;-80
2022/06/19 01:13:47;;;;;;;7.68;4.47;;;;;;;17.50;89.29;98162.59;2621737;28;20056;-80
2022/06/19 01:15:07;;;;;;;5.75;4.60;;;;;;;17.51;89.24;98151.06;2621606;28;20059;-80
2022/06/19 01:16:24;;;;;;;7.13;4.93;;;;;;;17.47;89.19;98154.84;2610660;28;20523;-80
2022/06/19 01:17:39;;;;;;;7.13;4.72;;;;;;;17.39;89.65;98159.72;2614980;28;20052;-80
2022/06/19 01:18:55;;;;;;;7.03;4.80;;;;;;;17.38;89.90;98158.03;2621693;28;20044;-81
2022/06/19 01:20:11;;;;;;;6.60;4.60;;;;;;;17.38;89.69;98156.22;2621569;28;20050;-81
2022/06/19 01:21:38;;;;;;;10.02;4.88;;;;;;;17.35;89.52;98157.28;2621492;28;20766;-80
2022/06/19 01:23:14;;;;;;;6.22;4.93;;;;;;;17.16;89.76;98152.25;2621429;28;20109;-80
2022/06/19 01:24:51;;;;;;;7.13;4.60;;;;;;;17.07;90.55;98147.50;2603709;28;20083;-80
2022/06/19 01:26:13;;;;;;;9.07;4.80;;;;;;;17.00;91.12;98154.94;2621442;28;20079;-80
2022/06/19 01:29:08;;;;;;;7.47;4.70;;;;;;;17.03;90.90;98154.75;2621166;28;20056;-80
2022/06/19 01:30:26;;;;;;;7.00;4.63;;;;;;;17.07;90.57;98150.13;2621338;28;20047;-80
2022/06/19 01:31:52;;;;;;;6.07;4.70;;;;;;;17.07;90.80;98156.28;2621324;28;20901;-80
2022/06/19 01:33:11;;;;;;;6.95;4.55;;;;;;;17.12;90.44;98157.81;2621235;28;20051;-80
2022/06/19 01:34:36;;;;;;;5.18;4.65;;;;;;;17.16;90.16;98154.88;2621354;28;20036;-81
2022/06/19 01:35:54;;;;;;;7.32;4.85;;;;;;;17.17;90.04;98156.59;2621360;28;20148;-81
2022/06/19 01:37:17;;;;;;;7.30;4.35;;;;;;;17.19;90.33;98152.06;2621424;28;20569;-80
2022/06/19 01:38:34;;;;;;;9.00;4.82;;;;;;;17.22;90.39;98153.66;2621647;28;20479;-80
2022/06/19 01:40:20;;;;;;;7.90;4.63;;;;;;;17.22;90.94;98151.03;2621445;28;20052;-81
2022/06/19 01:41:36;;;;;;;5.90;4.80;;;;;;;17.20;91.17;98147.63;2621454;28;20433;-81
2022/06/19 01:42:51;;;;;;;5.82;4.80;;;;;;;17.19;90.75;98152.06;2621351;28;20106;-80
2022/06/19 01:44:07;;;;;;;7.32;4.97;;;;;;;17.16;91.00;98143.44;2620978;28;20110;-80
2022/06/19 01:45:23;;;;;;;6.75;5.18;;;;;;;17.20;90.36;98140.53;2621702;28;20775;-81
2022/06/19 01:46:39;;;;;;;10.73;4.72;;;;;;;16.99;90.48;98140.00;2621347;28;20075;-81
2022/06/19 01:47:54;;;;;;;5.13;4.63;;;;;;;16.88;91.46;98137.13;2621310;28;20404;-81
2022/06/19 01:49:10;;;;;;;7.05;4.90;;;;;;;16.79;92.25;98144.66;2621514;28;20052;-81
2022/06/19 01:50:29;;;;;;;7.68;5.22;;;;;;;16.75;92.36;98145.75;2621112;28;20529;-80
2022/06/19 01:51:45;;;;;;;8.80;4.70;;;;;;;16.72;92.85;98147.75;2621201;28;20048;-80
2022/06/19 01:53:07;;;;;;;6.85;4.72;;;;;;;16.71;92.88;98136.31;2621155;28;20135;-80
2022/06/19 01:54:28;;;;;;;7.13;5.00;;;;;;;16.72;92.75;98140.66;2621145;28;20659;-81
2022/06/19 01:55:44;;;;;;;8.10;5.20;;;;;;;16.67;93.62;98145.38;2620945;28;20125;-80
2022/06/19 01:57:01;;;;;;;7.13;5.07;;;;;;;16.62;93.68;98137.69;2621312;28;20148;-81
2022/06/19 01:58:18;;;;;;;7.68;4.97;;;;;;;16.59;94.31;98142.31;2621271;28;20523;-81
2022/06/19 01:59:36;;;;;;;6.35;5.32;;;;;;;16.61;94.37;98143.94;2621207;28;20041;-81
2022/06/19 02:00:52;;;;;;;7.95;4.97;;;;;;;16.64;93.67;98146.38;2621098;28;20049;-81
2022/06/19 02:02:10;;;;;;;7.50;4.57;;;;;;;16.66;93.79;98144.50;2621075;28;20055;-80
2022/06/19 02:03:34;;;;;;;7.22;5.25;;;;;;;16.69;93.17;98140.84;2620803;28;20048;-80
2022/06/19 02:04:50;;;;;;;9.07;4.88;;;;;;;16.74;93.29;98138.78;2621322;28;20048;-80
2022/06/19 02:06:09;;;;;;;6.30;4.55;;;;;;;16.76;92.91;98130.75;2621101;28;20052;-81
2022/06/19 02:07:28;;;;;;;7.53;5.07;;;;;;;16.77;93.21;98128.03;2620978;28;20045;-80
2022/06/19 02:08:44;;;;;;;7.22;4.90;;;;;;;16.79;93.04;98133.22;2620993;28;20049;-81
2022/06/19 02:10:01;;;;;;;13.82;5.40;;;;;;;16.79;92.88;98128.81;2621403;28;20087;-82
2022/06/19 02:11:17;;;;;;;7.47;5.00;;;;;;;16.78;92.76;98129.75;2620930;28;20075;-80
2022/06/19 02:12:33;;;;;;;7.30;5.13;;;;;;;16.78;92.92;98119.16;2621193;28;20060;-82
2022/06/19 02:13:49;;;;;;;8.23;5.60;;;;;;;16.80;92.99;98132.28;2620912;28;20054;-80
2022/06/19 02:15:08;;;;;;;7.53;4.80;;;;;;;16.75;93.52;98119.31;2621099;28;20152;-81
2022/06/19 02:16:25;;;;;;;7.28;5.10;;;;;;;16.72;93.06;98122.16;2620867;28;20044;-80
2022/06/19 02:17:45;;;;;;;7.57;4.78;;;;;;;16.70;93.59;98117.91;2621219;28;20114;-81
2022/06/19 02:19:00;;;;;;;8.55;5.15;;;;;;;16.68;93.84;98125.94;2620867;28;20040;-80
2022/06/19 02:20:16;;;;;;;8.73;5.13;;;;;;;16.69;93.68;98113.53;2620829;28;20048;-81
2022/06/19 02:21:52;;;;;;;8.25;5.10;;;;;;;16.66;93.75;98112.78;2620833;28;20800;-81
2022/06/19 02:23:08;;;;;;;7.53;4.88;;;;;;;16.62;93.66;98107.75;2620140;28;20514;-80
2022/06/19 02:24:26;;;;;;;6.57;5.22;;;;;;;16.56;92.97;98101.06;2620186;28;20044;-81
2022/06/19 02:25:44;;;;;;;6.20;4.60;;;;;;;16.50;92.28;98102.28;2620675;28;20491;-80
2022/06/19 02:27:01;;;;;;;6.25;4.93;;;;;;;16.47;93.60;98099.78;2620852;28;20472;-81
2022/06/19 02:28:18;;;;;;;6.13;4.60;;;;;;;16.49;94.53;98095.28;2620788;28;20055;-81
2022/06/19 02:29:37;;;;;;;7.40;5.00;;;;;;;16.47;95.29;98091.84;2621001;28;20074;-81
2022/06/19 02:30:53;;;;;;;6.05;4.95;;;;;;;16.46;95.73;98090.16;2620548;28;20544;-81
2022/06/19 02:32:20;;;;;;;7.10;5.28;;;;;;;16.48;95.97;98090.94;2620837;28;20045;-81
2022/06/19 02:33:43;;;;;;;9.73;5.50;;;;;;;16.46;97.41;98094.63;2621051;28;20431;-81
2022/06/19 02:34:58;;;;;;;8.40;5.43;;;;;;;16.45;97.37;98091.09;2620762;28;20048;-81
2022/06/19 02:36:55;;;;;;;6.93;5.28;;;;;;;16.45;97.33;98092.91;2620871;28;20049;-81
2022/06/19 02:38:19;;;;;;;8.35;5.00;;;;;;;16.46;97.18;98090.16;2568337;28;20078;-81
2022/06/19 02:39:41;;;;;;;7.40;5.10;;;;;;;16.49;96.94;98094.44;2568487;28;20404;-81
2022/06/19 02:41:02;;;;;;;9.45;4.95;;;;;;;16.52;96.75;98094.25;2617159;28;20478;-81
2022/06/19 02:42:21;;;;;;;7.88;5.10;;;;;;;16.54;96.69;98087.06;2620978;28;20536;-80
2022/06/19 02:43:36;;;;;;;9.88;5.35;;;;;;;16.55;96.02;98088.78;2620809;28;20053;-81
2022/06/19 02:44:55;;;;;;;5.15;4.65;;;;;;;16.56;96.76;98084.34;2620765;28;20105;-80
2022/06/19 02:46:11;;;;;;;6.82;5.05;;;;;;;16.58;96.66;98091.25;2620650;28;20044;-81
2022/06/19 02:47:30;;;;;;;9.30;5.15;;;;;;;16.61;96.25;98085.78;2620895;28;20052;-81
2022/06/19 02:48:46;;;;;;;9.65;4.90;;;;;;;16.65;95.60;98095.22;2620603;28;20040;-81
2022/06/19 02:50:04;;;;;;;6.90;4.68;;;;;;;16.75;95.92;98098.19;2621005;28;20046;-81
2022/06/19 02:51:20;;;;;;;6.88;4.53;;;;;;;16.80;95.54;98096.13;2620540;28;20070;-81
2022/06/19 02:52:35;;;;;;;5.57;4.85;;;;;;;16.76;95.02;98094.63;2621039;28;20044;-81
2022/06/19 02:53:51;;;;;;;5.20;4.40;;;;;;;16.74;94.86;98093.00;2620725;28;20130;-81
2022/06/19 02:55:07;;;;;;;6.00;4.95;;;;;;;16.71;95.02;98091.38;2621024;28;20040;-81
2022/06/19 02:56:23;;;;;;;7.50;4.60;;;;;;;16.68;95.12;98094.22;2620887;28;20048;-81
2022/06/19 02:57:38;;;;;;;7.13;4.55;;;;;;;16.66;94.81;98091.63;2620910;28;20446;-81
2022/06/19 02:58:54;;;;;;;6.10;4.90;;;;;;;16.62;95.25;98092.78;2620924;28;20622;-81
2022/06/19 03:00:16;;;;;;;7.05;4.90;;;;;;;16.55;95.95;98087.94;2620751;28;20040;-80
2022/06/19 03:01:32;;;;;;;9.10;5.43;;;;;;;16.50;96.28;98089.06;2620533;28;20171;-81
2022/06/19 03:02:50;;;;;;;7.07;5.25;;;;;;;16.43;96.26;98082.41;2620848;28;20075;-81
2022/06/19 03:04:08;;;;;;;7.93;5.35;;;;;;;16.35;96.83;98087.31;2620726;28;20052;-81
2022/06/19 03:05:27;;;;;;;7.53;5.47;;;;;;;16.33;97.18;98086.53;2627830;28;20046;-81
2022/06/19 03:06:43;;;;;;;10.68;5.85;;;;;;;16.36;97.76;98089.00;2631110;28;20040;-81
2022/06/19 03:07:58;;;;;;;6.93;5.43;;;;;;;16.34;98.99;98083.81;2631380;28;20047;-81
2022/06/19 03:09:14;;;;;;;7.93;5.63;;;;;;;16.34;99.51;98085.59;2631070;28;20060;-81
2022/06/19 03:10:30;;;;;;;9.85;5.65;;;;;;;16.35;99.00;98087.31;2631281;28;20056;-81
2022/06/19 03:11:46;;;;;;;6.25;5.07;;;;;;;16.32;98.90;98080.41;2630983;28;20055;-81
2022/06/19 03:13:02;;;;;;;8.30;5.10;;;;;;;16.34;98.78;98082.94;2631290;28;20079;-81
2022/06/19 03:14:18;;;;;;;6.47;4.93;;;;;;;16.35;98.34;98082.88;2631140;28;20794;-81
2022/06/19 03:15:33;;;;;;;5.75;5.00;;;;;;;16.50;97.76;98081.13;2631026;28;20052;-81
2022/06/19 03:16:49;;;;;;;8.25;5.00;;;;;;;16.51;97.57;98089.91;2631275;28;20047;-81
2022/06/19 03:18:04;;;;;;;7.35;5.22;;;;;;;16.47;97.64;98086.56;2631117;28;20076;-81
2022/06/19 03:19:20;;;;;;;7.97;4.60;;;;;;;16.46;97.61;98090.16;2631467;28;20127;-81
2022/06/19 03:20:36;;;;;;;8.05;5.10;;;;;;;16.48;97.26;98090.94;2631146;28;20048;-81
2022/06/19 03:21:52;;;;;;;6.57;5.13;;;;;;;16.50;96.85;98089.06;2631262;28;20051;-81
2022/06/19 03:23:09;;;;;;;7.38;4.88;;;;;;;16.52;97.13;98089.81;2631212;28;20047;-81
2022/06/19 03:24:26;;;;;;;11.13;4.80;;;;;;;16.53;97.06;98090.66;2631063;28;20056;-81
2022/06/19 03:25:42;;;;;;;5.75;4.65;;;;;;;16.51;97.28;98084.63;2630910;28;20048;-81
2022/06/19 03:26:57;;;;;;;7.75;4.88;;;;;;;16.51;97.33;98087.25;2631044;28;20498;-81
2022/06/19 03:28:13;;;;;;;10.38;4.70;;;;;;;16.50;97.14;98083.78;2630817;28;20048;-81
2022/06/19 03:29:29;;;;;;;8.68;4.75;;;;;;;16.50;97.61;98081.13;2631090;28;20036;-81
2022/06/19 03:30:44;;;;;;;7.38;4.95;;;;;;;16.50;97.36;98073.22;2630777;28;20048;-81
2022/06/19 03:32:00;;;;;;;8.40;5.40;;;;;;;16.52;97.07;98070.47;2631200;28;20041;-81
2022/06/19 03:33:15;;;;;;;8.10;4.95;;;;;;;16.51;97.44;98063.47;2630857;28;20105;-81
2022/06/19 03:34:32;;;;;;;7.35;4.95;;;;;;;16.52;97.59;98068.69;2631189;28;20129;-81
2022/06/19 03:35:48;;;;;;;7.18;5.28;;;;;;;16.50;98.02;98056.50;2631083;28;20081;-81
2022/06/19 03:37:04;;;;;;;6.30;5.18;;;;;;;16.51;97.53;98055.53;2631194;28;20089;-81
2022/06/19 03:38:20;;;;;;;6.30;5.10;;;;;;;16.51;97.78;98060.84;2631016;28;20044;-81
2022/06/19 03:39:36;;;;;;;7.65;4.90;;;;;;;16.48;98.36;98063.66;2630233;28;20055;-81
2022/06/19 03:40:51;;;;;;;10.52;5.55;;;;;;;16.50;98.69;98051.19;2620490;28;20053;-81
2022/06/19 03:42:08;;;;;;;8.32;5.40;;;;;;;16.50;98.49;98056.50;2620278;28;20431;-81
2022/06/19 03:43:23;;;;;;;7.07;5.47;;;;;;;16.53;98.04;98061.59;2620907;28;20624;-81
2022/06/19 03:44:39;;;;;;;7.80;5.40;;;;;;;16.54;98.39;98054.53;2620456;28;20075;-81
2022/06/19 03:45:59;;;;;;;6.00;4.93;;;;;;;16.55;97.59;98054.41;2620740;28;20491;-81
2022/06/19 03:47:21;;;;;;;9.15;5.10;;;;;;;16.57;97.51;98065.78;2620434;28;20045;-81
2022/06/19 03:48:36;;;;;;;9.75;5.30;;;;;;;16.59;97.36;98057.72;2624155;28;20117;-81
2022/06/19 03:49:52;;;;;;;7.95;4.70;;;;;;;16.57;97.65;98054.34;2630918;28;20048;-81
2022/06/19 03:51:08;;;;;;;6.82;5.28;;;;;;;16.60;97.24;98049.72;2630726;28;20048;-81
2022/06/19 03:52:24;;;;;;;8.25;5.55;;;;;;;16.63;97.07;98056.63;2630520;28;20048;-81
2022/06/19 03:53:39;;;;;;;7.30;5.40;;;;;;;16.63;97.48;98046.06;2630890;28;20048;-82
2022/06/19 03:54:55;;;;;;;8.43;5.10;;;;;;;16.64;97.52;98045.97;2630757;28;20059;-82
2022/06/19 03:56:15;;;;;;;9.15;5.40;;;;;;;16.67;97.51;98044.94;2631026;28;20044;-81
2022/06/19 03:57:30;;;;;;;8.63;5.10;;;;;;;16.69;97.52;98040.41;2630906;28;20044;-81
2022/06/19 03:58:46;;;;;;;8.85;4.95;;;;;;;16.71;97.22;98042.97;2630950;28;20514;-82
2022/06/19 04:00:03;;;;;;;6.80;5.05;;;;;;;16.74;97.46;98045.41;2630386;28;20071;-81
2022/06/19 04:01:27;;;;;;;8.43;5.63;;;;;;;16.75;97.57;98050.59;2630847;28;20048;-81
2022/06/19 04:02:44;;;;;;;6.78;5.28;;;;;;;16.79;97.53;98048.63;2630822;28;20394;-81
2022/06/19 04:03:59;;;;;;;9.95;5.35;;;;;;;16.80;97.32;98048.53;2631175;28;20048;-82
2022/06/19 04:05:15;;;;;;;6.43;5.20;;;;;;;16.81;96.93;98049.38;2631090;28;20056;-81
2022/06/19 04:06:34;;;;;;;8.35;5.35;;;;;;;16.85;97.17;98050.06;2631285;28;20052;-81
2022/06/19 04:07:50;;;;;;;7.50;4.97;;;;;;;16.90;96.76;98047.97;2622015;28;20055;-81
2022/06/19 04:09:08;;;;;;;9.15;4.65;;;;;;;16.94;96.23;98049.50;2622433;28;20078;-81
2022/06/19 04:10:24;;;;;;;6.45;5.00;;;;;;;16.99;96.33;98052.75;2622183;28;20114;-81
2022/06/19 04:11:41;;;;;;;7.85;4.80;;;;;;;17.10;95.72;98049.44;2622312;28;20044;-81
2022/06/19 04:12:57;;;;;;;7.72;5.47;;;;;;;17.22;95.14;98048.69;2622168;28;20037;-81
2022/06/19 04:14:15;;;;;;;7.60;5.40;;;;;;;17.21;95.38;98049.63;2622285;28;20132;-81
2022/06/19 04:15:30;;;;;;;7.80;5.35;;;;;;;17.20;96.14;98049.75;2622202;28;20651;-81
2022/06/19 04:16:46;;;;;;;7.30;5.38;;;;;;;17.24;96.43;98048.59;2631237;28;20040;-81
2022/06/19 04:18:02;;;;;;;11.50;5.63;;;;;;;17.19;97.44;98046.25;2632769;28;20040;-81
2022/06/19 04:19:17;;;;;;;9.70;6.50;;;;;;;17.22;96.76;98048.69;2632644;28;20076;-81
2022/06/19 04:20:33;;;;;;;8.15;5.75;;;;;;;17.28;96.13;98039.53;2632419;28;20135;-81
2022/06/19 04:21:49;;;;;;;8.52;6.05;;;;;;;17.29;96.39;98043.03;2632432;28;20048;-81
2022/06/19 04:23:06;;;;;;;11.38;6.03;;;;;;;17.27;96.12;98044.94;2632504;28;20051;-81
2022/06/19 04:24:21;;;;;;;9.45;6.05;;;;;;;17.32;96.19;98043.69;2632764;28;20612;-80
2022/06/19 04:25:42;;;;;;;9.70;6.05;;;;;;;17.33;96.11;98037.47;2632802;28;20059;-81
2022/06/19 04:26:57;;;;;;;8.98;6.38;;;;;;;17.42;96.05;98041.31;2632848;28;20048;-81
2022/06/19 04:28:13;;;;;;;10.80;6.25;;;;;;;17.36;96.51;98037.25;2632518;28;20052;-81
2022/06/19 04:29:28;;;;;;;8.30;5.70;;;;;;;17.41;95.85;98036.97;2632664;28;20048;-81
2022/06/19 04:30:47;;;;;;;6.90;5.43;;;;;;;17.43;95.66;98039.50;2632467;28;20346;-80
2022/06/19 04:32:03;;;;;;;7.05;5.88;;;;;;;17.47;95.28;98036.56;2632664;28;20102;-81
2022/06/19 04:33:20;;;;;;;6.43;5.78;;;;;;;17.54;94.99;98037.03;2622008;28;20050;-81
2022/06/19 04:34:36;;;;;;;8.43;6.32;;;;;;;17.58;95.23;98033.25;2621652;28;20479;-81
2022/06/19 04:35:51;;;;;;;6.18;5.35;;;;;;;17.59;94.51;98037.59;2621634;28;20124;-81
2022/06/19 04:37:07;;;;;;;12.07;5.97;;;;;;;17.63;95.10;98032.97;2621617;28;20036;-81
2022/06/19 04:38:23;;;;;;;9.65;6.10;;;;;;;17.71;94.02;98032.47;2621852;28;20561;-81
2022/06/19 04:39:39;;;;;;;8.95;5.88;;;;;;;17.77;93.95;98032.09;2621699;28;20068;-81
2022/06/19 04:40:55;;;;;;;9.63;5.85;;;;;;;17.82;94.07;98037.94;2621595;28;20443;-81
2022/06/19 04:42:11;;;;;;;6.47;5.70;;;;;;;17.95;93.33;98042.44;2621338;28;20478;-81
2022/06/19 04:43:26;;;;;;;10.02;6.10;;;;;;;17.92;93.55;98028.44;2621674;28;20090;-81
2022/06/19 04:44:42;;;;;;;7.65;6.05;;;;;;;17.95;94.06;98039.78;2622769;28;20049;-81
2022/06/19 04:46:05;;;;;;;6.97;5.38;;;;;;;18.02;93.00;98034.03;2623324;28;20509;-82
2022/06/19 04:47:21;;;;;;;9.95;6.15;;;;;;;18.10;92.44;98035.34;2624048;28;20128;-81
2022/06/19 04:48:38;;;;;;;11.13;6.90;;;;;;;18.15;92.30;98031.41;2621585;28;20059;-80
2022/06/19 04:49:53;;;;;;;7.13;6.03;;;;;;;18.17;92.95;98031.31;2621600;28;20047;-81
2022/06/19 04:51:09;;;;;;;9.10;5.82;;;;;;;18.20;92.92;98034.63;2610388;28;20049;-80
2022/06/19 04:52:24;;;;;;;8.57;6.25;;;;;;;18.21;93.49;98033.66;2614973;28;20098;-81
2022/06/19 04:53:40;;;;;;;8.57;6.28;;;;;;;18.31;91.91;98031.25;2619734;28;20211;-78
2022/06/19 04:54:56;;;;;;;7.93;6.10;;;;;;;18.30;92.54;98031.34;2620989;28;20398;-81
2022/06/19 04:56:14;;;;;;;6.47;5.78;;;;;;;18.28;92.77;98025.28;2621093;28;20443;-79
2022/06/19 04:57:29;;;;;;;8.00;6.50;;;;;;;18.27;92.85;98024.47;2620673;28;20043;-81
2022/06/19 04:58:46;;;;;;;8.52;5.95;;;;;;;18.25;92.34;98022.84;2620640;28;20037;-79
2022/06/19 05:00:03;;;;;;;6.50;5.82;;;;;;;18.26;93.19;98027.19;2621043;28;20483;-81
2022/06/19 05:01:27;;;;;;;8.45;5.50;;;;;;;18.31;92.92;98025.13;2620674;28;20055;-79
2022/06/19 05:02:43;;;;;;;7.00;5.78;;;;;;;18.35;93.15;98021.31;2620265;28;20049;-79
2022/06/19 05:04:00;;;;;;;9.40;6.10;;;;;;;18.38;92.81;98029.03;2620124;28;20131;-81
2022/06/19 05:05:18;;;;;;;7.07;5.97;;;;;;;18.43;92.78;98024.28;2620294;28;20044;-79
2022/06/19 05:06:34;;;;;;;8.50;5.88;;;;;;;18.49;92.59;98017.72;2618144;28;20118;-81
2022/06/19 05:07:50;;;;;;;7.40;5.47;;;;;;;18.56;92.14;98013.72;2609003;28;20509;-79
2022/06/19 05:09:06;;;;;;;7.85;5.32;;;;;;;18.60;93.16;98023.13;2614088;28;20406;-79
2022/06/19 05:10:21;;;;;;;6.10;5.47;;;;;;;18.71;92.93;98021.56;2620652;28;20044;-79
2022/06/19 05:11:37;;;;;;;7.55;5.22;;;;;;;18.77;91.97;98019.34;2620336;28;20396;-80
2022/06/19 05:12:56;;;;;;;8.07;5.57;;;;;;;18.77;92.67;98011.38;2620766;28;20471;-81
2022/06/19 05:14:13;;;;;;;8.18;5.15;;;;;;;18.89;93.76;98017.63;2620595;28;20056;-80
2022/06/19 05:15:28;;;;;;;7.30;5.53;;;;;;;19.00;93.74;98016.09;2620295;28;20068;-80
2022/06/19 05:16:44;;;;;;;12.85;5.18;;;;;;;19.09;92.80;98010.16;2619989;28;20044;-81
2022/06/19 05:18:01;;;;;;;9.43;5.20;;;;;;;19.18;92.10;98006.00;2619438;28;20060;-81
2022/06/19 05:19:16;;;;;;;7.15;5.18;;;;;;;19.28;92.33;98009.69;2620174;28;20098;-80
2022/06/19 05:20:32;;;;;;;9.93;5.72;;;;;;;19.39;91.40;98013.38;2620592;28;20117;-81
2022/06/19 05:21:50;;;;;;;8.10;5.03;;;;;;;19.48;91.50;98007.41;2619896;28;20037;-80
2022/06/19 05:23:08;;;;;;;7.25;5.25;;;;;;;19.58;90.73;98010.25;2619809;28;20036;-80
2022/06/19 05:24:24;;;;;;;8.73;5.43;;;;;;;19.67;90.21;98006.06;2609104;28;20626;-79
2022/06/19 05:25:40;;;;;;;6.13;4.90;;;;;;;19.75;90.09;97998.41;2613691;28;20048;-81
2022/06/19 05:26:56;;;;;;;8.15;4.80;;;;;;;19.83;89.78;98001.34;2620043;28;20043;-79
2022/06/19 05:28:11;;;;;;;5.63;4.88;;;;;;;19.94;89.99;97989.97;2620303;28;20457;-79
2022/06/19 05:29:27;;;;;;;7.20;4.88;;;;;;;20.01;90.09;97999.16;2620299;28;20044;-80
2022/06/19 05:30:42;;;;;;;8.07;4.95;;;;;;;20.10;89.66;98004.78;2620212;28;20424;-81
2022/06/19 05:31:58;;;;;;;7.20;4.70;;;;;;;20.17;88.59;98001.53;2619640;28;20048;-79
2022/06/19 05:33:17;;;;;;;7.28;5.05;;;;;;;20.27;88.40;98000.88;2619732;28;20040;-80
2022/06/19 05:34:33;;;;;;;9.50;5.45;;;;;;;20.35;87.39;97993.13;2619817;28;20055;-80
2022/06/19 05:35:49;;;;;;;8.63;4.97;;;;;;;20.42;87.37;97989.06;2620221;28;20053;-80
2022/06/19 05:37:05;;;;;;;7.55;4.97;;;;;;;20.49;86.98;97983.25;2620236;28;20072;-80
2022/06/19 05:38:21;;;;;;;11.45;5.20;;;;;;;20.55;86.99;97986.31;2619713;28;20392;-80
2022/06/19 05:39:37;;;;;;;8.02;4.97;;;;;;;20.65;86.66;97982.94;2620064;28;20056;-80
2022/06/19 05:40:54;;;;;;;7.95;4.50;;;;;;;20.72;86.06;97984.16;2619903;28;20063;-79
2022/06/19 05:42:10;;;;;;;6.90;4.70;;;;;;;20.81;86.44;97982.63;2618028;28;20457;-79
2022/06/19 05:43:28;;;;;;;7.40;4.95;;;;;;;20.89;86.50;97980.22;2619857;28;20142;-79
2022/06/19 05:44:44;;;;;;;6.85;4.60;;;;;;;20.97;84.81;97976.97;2620063;28;20539;-79
2022/06/19 05:46:05;;;;;;;7.13;4.68;;;;;;;21.03;84.60;97972.00;2620665;28;20542;-80
2022/06/19 05:47:21;;;;;;;9.02;4.65;;;;;;;21.11;84.20;97974.06;2617627;28;20442;-80
2022/06/19 05:48:37;;;;;;;7.78;5.05;;;;;;;21.25;83.59;97969.44;2620387;28;20040;-79
2022/06/19 05:49:52;;;;;;;5.22;4.30;;;;;;;21.34;83.45;97966.06;2620496;28;20147;-80
2022/06/19 05:51:08;;;;;;;6.20;4.28;;;;;;;21.45;82.56;97967.84;2620195;28;20040;-83
2022/06/19 05:52:24;;;;;;;5.22;4.05;;;;;;;21.57;81.30;97958.88;2612979;28;20053;-81
2022/06/19 05:53:43;;;;;;;8.60;3.80;;;;;;;21.71;78.52;97955.09;2620011;28;20048;-81
2022/06/19 05:54:59;;;;;;;7.75;3.85;;;;;;;21.85;76.67;97955.78;2620283;28;20040;-79
2022/06/19 05:56:15;;;;;;;6.75;3.70;;;;;;;21.99;75.30;97954.66;2620416;28;20052;-79
2022/06/19 05:57:30;;;;;;;8.80;3.75;;;;;;;22.09;71.99;97947.59;2619139;28;20064;-80
2022/06/19 05:58:46;;;;;;;5.80;3.63;;;;;;;22.24;70.49;97947.28;2620780;28;20514;-80
2022/06/19 06:00:03;;;;;;;5.95;3.50;;;;;;;22.40;69.58;97944.13;2625960;28;20548;-80
2022/06/19 06:01:20;;;;;;;6.43;3.67;;;;;;;22.53;68.27;97951.97;2630593;28;20048;-79
2022/06/19 06:02:36;;;;;;;6.75;3.83;;;;;;;22.65;68.38;97952.75;2622646;28;20415;-79
2022/06/19 06:03:52;;;;;;;6.50;3.25;;;;;;;22.78;67.90;97941.88;2628406;28;20052;-81
2022/06/19 06:05:08;;;;;;;6.82;3.30;;;;;;;22.92;65.62;97943.31;2627725;28;20126;-80
2022/06/19 06:06:28;;;;;;;5.03;3.25;;;;;;;23.02;65.04;97943.34;2621048;28;20098;-80
2022/06/19 06:07:44;;;;;;;6.88;3.58;;;;;;;23.11;64.81;97939.88;2618444;28;20527;-80